Terminal Aerodrome Forecast
Issued by NWS

Home | Current Version | Previous Version | Text Only | Print | Product List | Glossary On
Versions: 1 2 3 4 5 6 7 8 9 10 11 12 13 14 15 16 17 18 19 20
000
FTUS45 KRIW 202300
TAFPNA
TAF
KPNA 202320Z 2100/2124 VRB06KT P6SM VCSH SCT040 BKN080
     FM210800 VRB05KT P6SM BKN040
     FM211100 29005KT P6SM VCFG SCT015 SCT035
     FM211800 30006KT P6SM SCT040 BKN070
      AMD LTD TO CLD VIS AND WIND=

USA.gov is the U.S. government's official web portal to all federal, state and local government web resources and services.